Steep Falls, Maine
Current Conditions -  °F | °C
As of 10:51 PM on Wednesday 22 Oct 2014 (Local Time) from KPWM Reporting Station
Light Rain Light Rain  
Wind Chill: 42°   Ceiling: 1100
Heat Index: 49°   Visibility: 6mi
Dew Point: 45°   Wind: 21mph
Humidity: 86%   Direction: 30°NNE
Pressure: 29.99"   Gusts: 29mph
Location:  43.79°N, 70.65°W
Report Text: KPWM 230251Z 03018G25KT 6SM -RA BR OVC011 09/07 A2999 RMK AO2 PK WND 05028/0231 RAB0152 SLP154 P0002 60003 T00940072 58003
Loading
Personal Weather Stations






























Interactive Weather Map
Tropical Storm Tracking
New forecast layout! Learn more

10-Day Weather Forecast

Advertisements
Track Severe Weather on mobile